Time;durP1;ratioP1;P1;durP2;ratioP2;P2;SDS_P1;SDS_P2;PMS_P1;PMS_P2;Temp;Humidity;BMP_temperature;BMP_pressure;BME280_temperature;BME280_humidity;BME280_pressure;Samples;Min_cycle;Max_cycle;Signal;HPM_P1;HPM_P2
2022/05/27 00:02:19;;;;;;;3.00;2.80;;;;;;;;;;5212217;28;20376;-81
2022/05/27 00:04:49;;;;;;;4.75;2.85;;;;;;;;;;5211013;28;20022;-81
2022/05/27 00:07:20;;;;;;;2.35;2.10;;;;;;;;;;5211921;28;20032;-79
2022/05/27 00:09:50;;;;;;;7.20;2.75;;;;;;;;;;5196222;28;20060;-82
2022/05/27 00:12:20;;;;;;;3.42;2.95;;;;;;;;;;5217703;28;20210;-82
2022/05/27 00:14:51;;;;;;;7.10;2.95;;;;;;;;;;5218641;28;20025;-83
2022/05/27 00:17:21;;;;;;;3.58;3.38;;;;;;;;;;5200795;28;20129;-80
2022/05/27 00:19:52;;;;;;;5.70;2.60;;;;;;;;;;5218696;28;20095;-81
2022/05/27 00:22:22;;;;;;;4.97;3.47;;;;;;;;;;5221979;28;20035;-79
2022/05/27 00:28:00;;;;;;;2.00;1.95;;;;;;;;;;5228071;28;20052;-80
2022/05/27 00:31:08;;;;;;;2.65;2.53;;;;;;;;;;5228906;28;20009;-79
2022/05/27 00:33:39;;;;;;;7.10;2.92;;;;;;;;;;5218222;28;20024;-81
2022/05/27 00:36:10;;;;;;;2.90;2.47;;;;;;;;;;5199731;28;20018;-82
2022/05/27 00:38:41;;;;;;;5.22;3.13;;;;;;;;;;5217349;28;20014;-82
2022/05/27 00:41:11;;;;;;;11.80;4.07;;;;;;;;;;5218366;28;20073;-81
2022/05/27 00:43:42;;;;;;;4.82;4.03;;;;;;;;;;5217235;28;20495;-82
2022/05/27 00:46:22;;;;;;;11.43;3.03;;;;;;;;;;5199928;28;20033;-82
2022/05/27 00:48:52;;;;;;;;;;;;;;;;;;5217346;28;20059;-82
2022/05/27 00:51:25;;;;;;;4.67;3.43;;;;;;;;;;5216434;28;19913;-82
2022/05/27 00:54:04;;;;;;;3.40;3.10;;;;;;;;;;5216307;28;20411;-83
2022/05/27 00:56:36;;;;;;;6.25;4.72;;;;;;;;;;5216715;28;20108;-82
2022/05/27 00:59:17;;;;;;;4.22;4.03;;;;;;;;;;5215469;28;20071;-82
2022/05/27 01:01:47;;;;;;;3.35;2.35;;;;;;;;;;5219044;28;20036;-82
2022/05/27 01:04:18;;;;;;;2.92;2.83;;;;;;;;;;5205901;28;20022;-84
2022/05/27 01:06:48;;;;;;;5.07;3.10;;;;;;;;;;5201319;28;20084;-80
2022/05/27 01:09:19;;;;;;;7.53;4.57;;;;;;;;;;5202361;28;20119;-82
2022/05/27 01:12:11;;;;;;;8.15;4.65;;;;;;;;;;5219320;28;20017;-82
2022/05/27 01:14:42;;;;;;;4.20;3.63;;;;;;;;;;5222207;28;20022;-84
2022/05/27 01:17:18;;;;;;;8.70;3.93;;;;;;;;;;5220277;22;20047;-64
2022/05/27 01:22:43;;;;;;;4.97;3.13;;;;;;;;;;5206152;28;20072;-64
2022/05/27 01:25:13;;;;;;;6.95;3.67;;;;;;;;;;5189137;28;20026;-64
2022/05/27 01:27:50;;;;;;;4.75;4.35;;;;;;;;;;5189190;28;20024;-64
2022/05/27 01:30:21;;;;;;;4.05;3.70;;;;;;;;;;5189060;28;20116;-64
2022/05/27 01:32:58;;;;;;;3.80;2.85;;;;;;;;;;5188801;28;20025;-64
2022/05/27 01:35:37;;;;;;;6.32;3.90;;;;;;;;;;5188692;28;20029;-64
2022/05/27 01:38:07;;;;;;;7.83;4.57;;;;;;;;;;5188826;28;20022;-64
2022/05/27 01:40:45;;;;;;;7.82;5.38;;;;;;;;;;5206442;28;20794;-65
2022/05/27 01:43:22;;;;;;;4.60;4.20;;;;;;;;;;5188614;28;20029;-64
2022/05/27 01:46:04;;;;;;;6.63;3.75;;;;;;;;;;5206406;28;20104;-64
2022/05/27 01:48:39;;;;;;;6.97;4.30;;;;;;;;;;5188617;28;20033;-64
2022/05/27 01:51:22;;;;;;;3.83;3.20;;;;;;;;;;5188644;28;20100;-64
2022/05/27 01:54:15;;;;;;;5.32;4.90;;;;;;;;;;5205771;28;20030;-63
2022/05/27 01:56:49;;;;;;;8.52;5.57;;;;;;;;;;5188319;28;20115;-63
2022/05/27 01:59:24;;;;;;;5.90;4.07;;;;;;;;;;5188542;28;20029;-63
2022/05/27 02:02:01;;;;;;;6.68;4.85;;;;;;;;;;5188726;28;20052;-63
2022/05/27 02:04:58;;;;;;;5.50;4.13;;;;;;;;;;5188234;28;20095;-65
2022/05/27 02:07:31;;;;;;;13.52;5.57;;;;;;;;;;5183531;28;20036;-63
2022/05/27 02:10:05;;;;;;;4.60;4.30;;;;;;;;;;5206115;28;20072;-63
2022/05/27 02:12:37;;;;;;;9.80;4.50;;;;;;;;;;5201027;23;20030;-65
2022/05/27 02:15:10;;;;;;;8.80;5.03;;;;;;;;;;5186706;28;20105;-64
2022/05/27 02:17:44;;;;;;;7.97;4.63;;;;;;;;;;5187432;28;20021;-65
2022/05/27 02:20:22;;;;;;;16.35;5.53;;;;;;;;;;5187365;28;20401;-66
2022/05/27 02:22:56;;;;;;;9.70;4.60;;;;;;;;;;5187452;28;20049;-65
2022/05/27 02:25:30;;;;;;;13.32;5.40;;;;;;;;;;5186790;28;20022;-65
2022/05/27 02:28:15;;;;;;;4.05;3.83;;;;;;;;;;5187605;28;20364;-67
2022/05/27 02:30:46;;;;;;;13.75;6.60;;;;;;;;;;5187123;28;20020;-66
2022/05/27 02:36:29;;;;;;;6.53;4.60;;;;;;;;;;5204665;28;20037;-66
2022/05/27 02:38:59;;;;;;;8.88;5.28;;;;;;;;;;5186865;28;20021;-65
2022/05/27 02:41:34;;;;;;;4.28;3.97;;;;;;;;;;5204606;28;20017;-65
2022/05/27 02:44:07;;;;;;;6.82;4.53;;;;;;;;;;5186576;28;20115;-65
2022/05/27 02:46:53;;;;;;;11.43;6.18;;;;;;;;;;5204579;28;20018;-64
2022/05/27 02:49:29;;;;;;;5.97;4.60;;;;;;;;;;5186824;28;20021;-64
2022/05/27 02:51:59;;;;;;;6.38;5.80;;;;;;;;;;5186786;28;20491;-66
2022/05/27 02:54:32;;;;;;;7.95;5.97;;;;;;;;;;5186644;28;20116;-66
2022/05/27 02:57:05;;;;;;;6.68;5.15;;;;;;;;;;5186771;28;20058;-65
2022/05/27 02:59:37;;;;;;;9.00;5.70;;;;;;;;;;5186882;28;20479;-65
2022/05/27 03:02:09;;;;;;;11.25;5.97;;;;;;;;;;5186744;28;20029;-64
2022/05/27 03:04:41;;;;;;;7.32;4.80;;;;;;;;;;5186149;28;20389;-63
2022/05/27 03:07:17;;;;;;;9.38;6.15;;;;;;;;;;5186657;28;20021;-63
2022/05/27 03:09:57;;;;;;;9.73;5.18;;;;;;;;;;5186621;28;20021;-63
2022/05/27 03:12:30;;;;;;;8.20;4.97;;;;;;;;;;5186602;28;20474;-63
2022/05/27 03:15:07;;;;;;;7.90;5.75;;;;;;;;;;5186419;28;20033;-63
2022/05/27 03:17:50;;;;;;;11.85;6.28;;;;;;;;;;5186964;28;20028;-63
2022/05/27 03:20:27;;;;;;;8.73;5.55;;;;;;;;;;5186893;28;20401;-62
2022/05/27 03:23:13;;;;;;;9.20;5.45;;;;;;;;;;5186600;28;20032;-63
2022/05/27 03:25:52;;;;;;;12.13;7.93;;;;;;;;;;5185694;28;20017;-63
2022/05/27 03:28:37;;;;;;;8.68;7.82;;;;;;;;;;5186630;28;20022;-63
2022/05/27 03:31:34;;;;;;;13.15;9.05;;;;;;;;;;5186363;28;20112;-62
2022/05/27 03:34:07;;;;;;;11.15;7.00;;;;;;;;;;5184097;28;20124;-63
2022/05/27 03:36:57;;;;;;;8.05;7.22;;;;;;;;;;5186517;28;20045;-62
2022/05/27 03:39:42;;;;;;;10.57;7.30;;;;;;;;;;5186411;28;20433;-62
2022/05/27 03:42:12;;;;;;;15.93;11.32;;;;;;;;;;5204293;28;20033;-63
2022/05/27 03:45:00;;;;;;;17.10;9.27;;;;;;;;;;5205255;28;20393;-63
2022/05/27 03:47:31;;;;;;;12.05;9.07;;;;;;;;;;5190949;28;20440;-63
2022/05/27 03:50:02;;;;;;;15.70;8.68;;;;;;;;;;5208432;28;20022;-63
2022/05/27 03:52:43;;;;;;;14.30;7.97;;;;;;;;;;5190230;28;20052;-63
2022/05/27 03:55:15;;;;;;;10.73;9.30;;;;;;;;;;5190289;28;20021;-62
2022/05/27 03:57:45;;;;;;;16.50;10.50;;;;;;;;;;5190533;28;20029;-62
2022/05/27 04:00:16;;;;;;;11.48;9.75;;;;;;;;;;5190403;28;20028;-62
2022/05/27 04:02:46;;;;;;;13.38;9.40;;;;;;;;;;5190499;28;20032;-63
2022/05/27 04:05:17;;;;;;;12.15;10.95;;;;;;;;;;5190120;28;20036;-62
2022/05/27 04:07:48;;;;;;;13.70;9.80;;;;;;;;;;5190030;28;20343;-62
2022/05/27 04:10:19;;;;;;;15.85;11.65;;;;;;;;;;5189957;28;20033;-64
2022/05/27 04:12:49;;;;;;;12.43;10.80;;;;;;;;;;5189841;28;20033;-64
2022/05/27 04:15:20;;;;;;;13.90;10.10;;;;;;;;;;5152684;28;20025;-64
2022/05/27 04:17:51;;;;;;;12.93;11.85;;;;;;;;;;5163880;28;20032;-63
2022/05/27 04:20:21;;;;;;;12.63;9.43;;;;;;;;;;5169846;28;20050;-64
2022/05/27 04:22:54;;;;;;;11.80;9.57;;;;;;;;;;5169930;28;20022;-64
2022/05/27 04:25:24;;;;;;;13.50;10.82;;;;;;;;;;5169178;28;20489;-64
2022/05/27 04:27:54;;;;;;;17.13;10.80;;;;;;;;;;5169294;28;20072;-63
2022/05/27 04:30:25;;;;;;;12.25;11.23;;;;;;;;;;5154212;28;20050;-63
2022/05/27 04:32:55;;;;;;;13.02;11.10;;;;;;;;;;5157037;28;20062;-63
2022/05/27 04:35:25;;;;;;;12.52;10.48;;;;;;;;;;5148765;28;20037;-62
2022/05/27 04:37:56;;;;;;;14.93;11.65;;;;;;;;;;5149129;28;20122;-64
2022/05/27 04:40:26;;;;;;;17.08;11.05;;;;;;;;;;5148910;28;20384;-63
2022/05/27 04:42:57;;;;;;;12.73;11.70;;;;;;;;;;5148520;28;20026;-64
2022/05/27 04:45:27;;;;;;;11.50;10.38;;;;;;;;;;5147911;28;20168;-63
2022/05/27 04:47:57;;;;;;;10.65;9.73;;;;;;;;;;5165041;28;20394;-62
2022/05/27 04:50:28;;;;;;;12.73;11.25;;;;;;;;;;5144680;28;20109;-63
2022/05/27 04:52:58;;;;;;;13.18;11.90;;;;;;;;;;5143751;28;20506;-64
2022/05/27 04:55:30;;;;;;;14.25;12.30;;;;;;;;;;5144889;28;20041;-65
2022/05/27 04:58:00;;;;;;;11.73;10.57;;;;;;;;;;5146503;28;20454;-66
2022/05/27 05:00:33;;;;;;;13.77;10.90;;;;;;;;;;5148133;28;20018;-65
2022/05/27 05:03:03;;;;;;;10.88;9.95;;;;;;;;;;5147123;28;20027;-65
2022/05/27 05:05:34;;;;;;;12.07;11.00;;;;;;;;;;5147872;28;20422;-66
2022/05/27 05:08:09;;;;;;;14.00;12.48;;;;;;;;;;5148436;28;20018;-66
2022/05/27 05:10:39;;;;;;;14.60;13.35;;;;;;;;;;5148365;28;20386;-66
2022/05/27 05:13:10;;;;;;;12.20;11.10;;;;;;;;;;5148158;28;20034;-65
2022/05/27 05:15:40;;;;;;;13.98;12.52;;;;;;;;;;5147890;28;20068;-66
2022/05/27 05:18:10;;;;;;;16.10;13.55;;;;;;;;;;5148274;28;20021;-65
2022/05/27 05:20:41;;;;;;;16.15;14.25;;;;;;;;;;5148074;28;20030;-65
2022/05/27 05:23:11;;;;;;;17.70;14.15;;;;;;;;;;5148116;28;20049;-66
2022/05/27 05:25:41;;;;;;;18.13;14.38;;;;;;;;;;5165247;28;20030;-65
2022/05/27 05:28:11;;;;;;;17.17;15.43;;;;;;;;;;5147856;28;20388;-62
2022/05/27 05:30:42;;;;;;;16.88;15.10;;;;;;;;;;5147965;28;20467;-63
2022/05/27 05:33:12;;;;;;;28.55;17.10;;;;;;;;;;5147888;28;20022;-62
2022/05/27 05:35:42;;;;;;;16.92;14.70;;;;;;;;;;5147645;28;20045;-62
2022/05/27 05:38:13;;;;;;;17.65;15.55;;;;;;;;;;5147820;28;20041;-63
2022/05/27 05:40:43;;;;;;;18.98;16.58;;;;;;;;;;5147664;28;20030;-64
2022/05/27 05:43:13;;;;;;;18.23;16.35;;;;;;;;;;5147738;28;20141;-65
2022/05/27 05:45:44;;;;;;;16.30;15.00;;;;;;;;;;5147384;28;20029;-65
2022/05/27 05:48:14;;;;;;;18.33;16.63;;;;;;;;;;5147720;28;20030;-66
2022/05/27 05:50:45;;;;;;;18.02;14.43;;;;;;;;;;5147519;28;20022;-66
2022/05/27 05:53:15;;;;;;;20.00;18.10;;;;;;;;;;5147268;28;20018;-66
2022/05/27 05:55:46;;;;;;;21.10;17.13;;;;;;;;;;5147152;28;20025;-65
2022/05/27 05:58:16;;;;;;;19.50;17.75;;;;;;;;;;5147463;28;20058;-66
2022/05/27 06:00:46;;;;;;;21.80;19.90;;;;;;;;;;5147361;28;20022;-64
2022/05/27 06:03:16;;;;;;;17.88;16.38;;;;;;;;;;5147302;28;20058;-64
2022/05/27 06:05:47;;;;;;;18.00;16.45;;;;;;;;;;5146904;28;20505;-65
2022/05/27 06:08:18;;;;;;;21.35;19.33;;;;;;;;;;5146938;28;20022;-64
2022/05/27 06:10:49;;;;;;;16.17;14.65;;;;;;;;;;5147182;28;20106;-64
2022/05/27 06:13:19;;;;;;;18.70;16.80;;;;;;;;;;5147073;28;20137;-65
2022/05/27 06:15:50;;;;;;;20.10;18.08;;;;;;;;;;5147065;28;20105;-64
2022/05/27 06:18:20;;;;;;;17.63;16.13;;;;;;;;;;5146915;28;20438;-64
2022/05/27 06:20:50;;;;;;;25.58;15.88;;;;;;;;;;5146836;28;20050;-64
2022/05/27 06:23:22;;;;;;;23.30;19.05;;;;;;;;;;5164252;28;20057;-63
2022/05/27 06:25:55;;;;;;;17.67;16.08;;;;;;;;;;5146759;28;20033;-63
2022/05/27 06:37:01;;;;;;;29.23;15.43;;;;;;;;;;5164088;28;20032;-63
2022/05/27 06:39:32;;;;;;;14.93;13.30;;;;;;;;;;5146855;28;20026;-63
2022/05/27 06:42:04;;;;;;;16.35;14.68;;;;;;;;;;5146701;28;20081;-62
2022/05/27 06:44:35;;;;;;;21.63;12.55;;;;;;;;;;5146372;28;20030;-62
2022/05/27 06:47:08;;;;;;;12.65;11.75;;;;;;;;;;5146700;28;20054;-63
2022/05/27 06:49:39;;;;;;;14.00;12.18;;;;;;;;;;5146253;28;20102;-62
2022/05/27 06:52:10;;;;;;;34.47;11.30;;;;;;;;;;5146432;28;20030;-62
2022/05/27 06:54:41;;;;;;;12.45;10.88;;;;;;;;;;5146175;28;20087;-62
2022/05/27 06:57:12;;;;;;;12.60;9.05;;;;;;;;;;5146325;28;20098;-62
2022/05/27 06:59:42;;;;;;;12.65;9.10;;;;;;;;;;5163683;28;20113;-61
2022/05/27 07:02:14;;;;;;;7.10;6.50;;;;;;;;;;5146432;28;20439;-62
2022/05/27 07:04:44;;;;;;;8.93;6.55;;;;;;;;;;5145875;28;20121;-61
2022/05/27 07:07:14;;;;;;;7.05;6.43;;;;;;;;;;5146278;28;20115;-61
2022/05/27 07:09:45;;;;;;;6.32;5.93;;;;;;;;;;5146256;28;20029;-62
2022/05/27 07:12:15;;;;;;;8.65;5.97;;;;;;;;;;5146030;28;20502;-63
2022/05/27 07:14:46;;;;;;;7.43;6.88;;;;;;;;;;5145822;28;20060;-62
2022/05/27 07:17:16;;;;;;;6.40;5.70;;;;;;;;;;5146154;28;20058;-61
2022/05/27 07:19:46;;;;;;;12.45;6.57;;;;;;;;;;5145241;28;20376;-61
2022/05/27 07:22:17;;;;;;;10.07;6.82;;;;;;;;;;5146269;28;20372;-61
2022/05/27 07:24:47;;;;;;;6.03;4.93;;;;;;;;;;5145494;28;20018;-61
2022/05/27 07:27:17;;;;;;;6.57;5.00;;;;;;;;;;5146092;28;20069;-61
2022/05/27 07:29:48;;;;;;;8.60;6.07;;;;;;;;;;5145990;28;20471;-61
2022/05/27 07:32:18;;;;;;;8.45;5.53;;;;;;;;;;5146043;28;20022;-62
2022/05/27 07:34:48;;;;;;;4.43;4.05;;;;;;;;;;5163370;28;20044;-62
2022/05/27 07:37:18;;;;;;;7.93;4.88;;;;;;;;;;5146548;28;20261;-63
2022/05/27 07:39:49;;;;;;;7.82;4.72;;;;;;;;;;5146210;28;20026;-63
2022/05/27 07:42:19;;;;;;;3.85;3.38;;;;;;;;;;5146111;28;20518;-63
2022/05/27 07:44:50;;;;;;;5.13;4.57;;;;;;;;;;5145438;28;20034;-63
2022/05/27 07:47:20;;;;;;;7.70;4.75;;;;;;;;;;5146319;28;20562;-63
2022/05/27 07:49:51;;;;;;;7.07;3.65;;;;;;;;;;5146078;28;20117;-63
2022/05/27 07:52:22;;;;;;;6.95;4.35;;;;;;;;;;5163696;28;20537;-64
2022/05/27 07:54:55;;;;;;;6.85;3.40;;;;;;;;;;5145565;28;20033;-63
2022/05/27 07:57:26;;;;;;;3.60;3.28;;;;;;;;;;5145939;28;20469;-62
2022/05/27 08:00:07;;;;;;;4.05;3.65;;;;;;;;;;5145740;28;20113;-62
2022/05/27 08:02:37;;;;;;;3.65;3.45;;;;;;;;;;5145782;28;20034;-62
2022/05/27 08:05:12;;;;;;;3.15;2.65;;;;;;;;;;5162793;28;20026;-63
2022/05/27 08:07:43;;;;;;;2.97;2.35;;;;;;;;;;5163525;28;20061;-63
2022/05/27 08:10:15;;;;;;;3.20;3.00;;;;;;;;;;5145823;28;20018;-64
2022/05/27 08:12:46;;;;;;;6.97;3.40;;;;;;;;;;5168352;22;20041;-81
2022/05/27 08:15:16;;;;;;;4.25;3.95;;;;;;;;;;5215218;28;20044;-82
2022/05/27 08:17:47;;;;;;;5.03;3.40;;;;;;;;;;5216148;28;20028;-81
2022/05/27 08:20:18;;;;;;;2.67;2.58;;;;;;;;;;5215329;28;20041;-82
2022/05/27 08:22:49;;;;;;;4.57;2.67;;;;;;;;;;5198180;28;20022;-81
2022/05/27 08:25:21;;;;;;;3.33;3.13;;;;;;;;;;5214578;28;20192;-82
2022/05/27 08:27:52;;;;;;;6.95;4.00;;;;;;;;;;5215300;28;20085;-81
2022/05/27 08:30:27;;;;;;;3.97;3.67;;;;;;;;;;5215990;28;20545;-81
2022/05/27 08:32:57;;;;;;;4.60;2.95;;;;;;;;;;5219342;28;20021;-82
2022/05/27 08:38:18;;;;;;;3.95;3.13;;;;;;;;;;5219477;28;20026;-82
2022/05/27 08:40:52;;;;;;;3.97;3.60;;;;;;;;;;5201150;28;20014;-82
2022/05/27 08:43:37;;;;;;;5.68;3.22;;;;;;;;;;5218553;28;20036;-82
2022/05/27 08:46:07;;;;;;;3.95;3.72;;;;;;;;;;5200758;28;20025;-83
2022/05/27 08:48:40;;;;;;;8.02;4.28;;;;;;;;;;5218719;28;20025;-82
2022/05/27 08:51:13;;;;;;;5.78;2.97;;;;;;;;;;5218804;28;20022;-82
2022/05/27 08:53:48;;;;;;;2.33;2.22;;;;;;;;;;5219114;28;20026;-83
2022/05/27 08:59:40;;;;;;;3.17;3.05;;;;;;;;;;5219835;28;20017;-82
2022/05/27 09:02:14;;;;;;;2.92;2.72;;;;;;;;;;5202026;28;20021;-81
2022/05/27 09:04:50;;;;;;;3.58;3.05;;;;;;;;;;5220992;28;20033;-81
2022/05/27 09:07:30;;;;;;;4.18;2.80;;;;;;;;;;5208078;28;20021;-82
2022/05/27 09:10:03;;;;;;;3.85;3.15;;;;;;;;;;5220617;28;20021;-83
2022/05/27 09:12:40;;;;;;;3.53;3.33;;;;;;;;;;5219001;28;20018;-82
2022/05/27 09:15:19;;;;;;;4.25;3.35;;;;;;;;;;5218071;28;20467;-83
2022/05/27 09:17:53;;;;;;;4.07;3.42;;;;;;;;;;5218869;28;20084;-82
2022/05/27 09:20:45;;;;;;;9.95;4.93;;;;;;;;;;5218632;28;20056;-84
2022/05/27 09:23:32;;;;;;;2.75;2.55;;;;;;;;;;5218285;28;20082;-82
2022/05/27 09:26:05;;;;;;;4.53;4.13;;;;;;;;;;5219408;28;20060;-82
2022/05/27 09:28:35;;;;;;;5.18;3.65;;;;;;;;;;5201964;28;20234;-83
2022/05/27 09:31:07;;;;;;;4.65;4.25;;;;;;;;;;5201783;28;20013;-82
2022/05/27 09:33:38;;;;;;;4.65;2.88;;;;;;;;;;5220039;28;20029;-82
2022/05/27 09:36:10;;;;;;;4.35;3.38;;;;;;;;;;5222139;28;20018;-82
2022/05/27 09:38:52;;;;;;;4.00;3.58;;;;;;;;;;5222921;28;20032;-82
2022/05/27 09:41:36;;;;;;;3.28;2.78;;;;;;;;;;5220874;28;20027;-83
2022/05/27 09:44:13;;;;;;;5.00;2.55;;;;;;;;;;5201142;28;20029;-82
2022/05/27 09:46:44;;;;;;;3.00;2.80;;;;;;;;;;5218335;28;20075;-81
2022/05/27 09:49:14;;;;;;;3.38;3.08;;;;;;;;;;5219780;28;20030;-80
2022/05/27 09:51:44;;;;;;;3.28;3.13;;;;;;;;;;5219236;28;20352;-81
2022/05/27 09:54:29;;;;;;;4.07;3.10;;;;;;;;;;5200970;28;20025;-81
2022/05/27 09:57:13;;;;;;;7.05;3.58;;;;;;;;;;5217852;28;20045;-81
2022/05/27 09:59:45;;;;;;;7.47;2.95;;;;;;;;;;5203289;28;20021;-82
2022/05/27 10:02:20;;;;;;;5.13;2.53;;;;;;;;;;5221359;28;20129;-82
2022/05/27 10:04:58;;;;;;;4.22;3.38;;;;;;;;;;5202315;28;20029;-80
2022/05/27 10:07:28;;;;;;;6.32;3.47;;;;;;;;;;5200406;28;20020;-81
2022/05/27 10:10:19;;;;;;;6.47;3.78;;;;;;;;;;5218160;28;20536;-81
2022/05/27 10:12:49;;;;;;;2.95;2.35;;;;;;;;;;5216468;28;20045;-81
2022/05/27 10:15:23;;;;;;;6.57;2.90;;;;;;;;;;5217600;28;20024;-82
2022/05/27 10:17:53;;;;;;;5.57;4.32;;;;;;;;;;5217011;28;20017;-82
2022/05/27 10:20:34;;;;;;;5.50;3.78;;;;;;;;;;5217514;28;20025;-82
2022/05/27 10:23:09;;;;;;;4.00;3.70;;;;;;;;;;5217261;28;20415;-82
2022/05/27 10:25:41;;;;;;;7.40;3.35;;;;;;;;;;5199669;28;20090;-82
2022/05/27 10:28:22;;;;;;;5.25;3.47;;;;;;;;;;5199890;28;20026;-82
2022/05/27 10:31:04;;;;;;;3.30;2.60;;;;;;;;;;5202762;28;20029;-83
2022/05/27 10:33:38;;;;;;;5.15;3.78;;;;;;;;;;5222232;28;20105;-82
2022/05/27 10:36:32;;;;;;;2.85;2.65;;;;;;;;;;5216980;28;20021;-82
2022/05/27 10:39:04;;;;;;;8.32;2.58;;;;;;;;;;5217036;28;20408;-82
2022/05/27 10:41:35;;;;;;;8.18;4.30;;;;;;;;;;5218916;28;20017;-82
2022/05/27 10:44:06;;;;;;;2.80;2.70;;;;;;;;;;5218272;28;20197;-82
2022/05/27 10:46:56;;;;;;;2.20;2.10;;;;;;;;;;5219006;28;20136;-81
2022/05/27 10:49:52;;;;;;;10.90;3.97;;;;;;;;;;5219443;28;20032;-82
2022/05/27 10:52:41;;;;;;;2.83;2.72;;;;;;;;;;5219556;28;20073;-80
2022/05/27 10:55:30;;;;;;;3.90;3.15;;;;;;;;;;5218864;28;20048;-81
2022/05/27 11:04:08;;;;;;;6.50;4.10;;;;;;;;;;5218653;28;20052;-82
2022/05/27 11:06:39;;;;;;;2.55;2.45;;;;;;;;;;5210361;28;20036;-80
2022/05/27 11:09:35;;;;;;;5.22;4.13;;;;;;;;;;5227912;28;20056;-80
2022/05/27 11:12:18;;;;;;;3.63;3.38;;;;;;;;;;5228213;28;20041;-81
2022/05/27 11:17:45;;;;;;;5.45;3.85;;;;;;;;;;5222923;28;20084;-80
2022/05/27 11:20:25;;;;;;;3.90;3.33;;;;;;;;;;5221558;28;20073;-81
2022/05/27 11:23:04;;;;;;;3.97;3.67;;;;;;;;;;5218326;28;20017;-80
2022/05/27 11:25:43;;;;;;;6.85;4.20;;;;;;;;;;5218604;28;20077;-79
2022/05/27 11:28:13;;;;;;;7.57;3.40;;;;;;;;;;5219238;28;20051;-80
2022/05/27 11:31:03;;;;;;;3.35;3.13;;;;;;;;;;5200879;28;20112;-81
2022/05/27 11:33:39;;;;;;;3.25;3.00;;;;;;;;;;5219396;28;20021;-81
2022/05/27 11:36:18;;;;;;;4.97;3.42;;;;;;;;;;5201586;28;20017;-81
2022/05/27 11:38:58;;;;;;;9.32;3.90;;;;;;;;;;5197631;28;20383;-81
2022/05/27 11:41:37;;;;;;;7.70;4.47;;;;;;;;;;5197973;28;20071;-78
2022/05/27 11:44:08;;;;;;;3.08;2.88;;;;;;;;;;5217969;28;20097;-80
2022/05/27 11:46:47;;;;;;;4.18;3.78;;;;;;;;;;5219861;28;20399;-81
2022/05/27 11:49:29;;;;;;;4.47;4.05;;;;;;;;;;5219610;28;20486;-79
2022/05/27 11:52:18;;;;;;;7.38;3.83;;;;;;;;;;5201050;28;20089;-80
2022/05/27 11:54:49;;;;;;;5.13;3.30;;;;;;;;;;5198310;28;20116;-81
2022/05/27 11:57:32;;;;;;;11.35;5.55;;;;;;;;;;5201824;28;20037;-80
2022/05/27 12:00:03;;;;;;;3.65;2.50;;;;;;;;;;5219106;28;20021;-79
2022/05/27 12:02:48;;;;;;;4.25;3.67;;;;;;;;;;5218944;28;20021;-81
2022/05/27 12:05:22;;;;;;;4.03;3.22;;;;;;;;;;5217542;28;20021;-80
2022/05/27 12:07:55;;;;;;;6.45;3.53;;;;;;;;;;5220085;28;20014;-81
2022/05/27 12:10:28;;;;;;;8.57;3.97;;;;;;;;;;5220109;28;20029;-81
2022/05/27 12:12:58;;;;;;;11.48;3.92;;;;;;;;;;5202176;28;20080;-79
2022/05/27 12:15:32;;;;;;;3.65;3.30;;;;;;;;;;5218612;28;20218;-80
2022/05/27 12:18:07;;;;;;;7.95;3.45;;;;;;;;;;5220092;28;20021;-80
2022/05/27 12:20:38;;;;;;;8.38;3.00;;;;;;;;;;5222053;28;20498;-82
2022/05/27 12:23:10;;;;;;;5.07;3.25;;;;;;;;;;5221223;28;20041;-80
2022/05/27 12:25:43;;;;;;;5.50;4.18;;;;;;;;;;5220747;28;20025;-81
2022/05/27 12:28:15;;;;;;;6.93;3.22;;;;;;;;;;5203392;28;20017;-82
2022/05/27 12:30:46;;;;;;;4.18;3.28;;;;;;;;;;5221975;28;20041;-81
2022/05/27 12:33:18;;;;;;;4.10;2.72;;;;;;;;;;5221306;28;20378;-79
2022/05/27 12:35:49;;;;;;;4.63;3.15;;;;;;;;;;5222295;28;20034;-81
2022/05/27 12:38:27;;;;;;;8.90;3.78;;;;;;;;;;5223280;28;20021;-82
2022/05/27 12:41:06;;;;;;;3.97;3.23;;;;;;;;;;5205348;28;20107;-81
2022/05/27 12:43:38;;;;;;;3.27;2.60;;;;;;;;;;5222484;28;20196;-81
2022/05/27 12:46:26;;;;;;;2.63;2.45;;;;;;;;;;5205125;28;20291;-81
2022/05/27 12:49:19;;;;;;;13.63;3.77;;;;;;;;;;5205961;28;20022;-80
2022/05/27 12:51:50;;;;;;;9.93;4.47;;;;;;;;;;5222765;28;20044;-83
2022/05/27 12:54:41;;;;;;;12.05;3.40;;;;;;;;;;5204644;28;20325;-80
2022/05/27 13:03:44;;;;;;;3.25;2.97;;;;;;;;;;5222587;28;20033;-80
2022/05/27 13:06:32;;;;;;;6.05;4.05;;;;;;;;;;5222716;28;20025;-81
2022/05/27 13:09:05;;;;;;;6.63;3.08;;;;;;;;;;5221505;28;20105;-81
2022/05/27 13:11:41;;;;;;;5.80;4.28;;;;;;;;;;5221374;28;20032;-84
2022/05/27 13:14:24;;;;;;;8.38;3.85;;;;;;;;;;5222527;28;20025;-84
2022/05/27 13:17:04;;;;;;;10.27;5.78;;;;;;;;;;5222985;28;20026;-81
2022/05/27 13:19:48;;;;;;;5.40;3.75;;;;;;;;;;5206124;28;20048;-81
2022/05/27 13:22:37;;;;;;;8.40;3.45;;;;;;;;;;5222640;28;20022;-81
2022/05/27 13:25:26;;;;;;;8.07;3.80;;;;;;;;;;5222574;28;20049;-82
2022/05/27 13:27:58;;;;;;;9.68;3.38;;;;;;;;;;5205461;28;20028;-82
2022/05/27 13:30:51;;;;;;;4.53;4.13;;;;;;;;;;5222849;28;20019;-82
2022/05/27 13:33:50;;;;;;;8.30;7.35;;;;;;;;;;5216634;28;20121;-80
2022/05/27 13:36:23;;;;;;;6.22;5.65;;;;;;;;;;5205704;28;20030;-86
2022/05/27 13:38:57;;;;;;;6.13;4.25;;;;;;;;;;5223837;28;20017;-86
2022/05/27 13:41:30;;;;;;;13.80;4.95;;;;;;;;;;5218878;28;20013;-84
2022/05/27 13:44:00;;;;;;;4.80;3.90;;;;;;;;;;5201230;28;20025;-82
2022/05/27 13:46:32;;;;;;;11.00;7.50;;;;;;;;;;5201736;28;20021;-84
2022/05/27 13:49:10;;;;;;;7.95;5.78;;;;;;;;;;5201305;28;20032;-82
2022/05/27 13:51:42;;;;;;;14.20;5.15;;;;;;;;;;5201190;28;20032;-80
2022/05/27 13:54:14;;;;;;;6.22;4.28;;;;;;;;;;5220073;28;20420;-82
2022/05/27 13:56:53;;;;;;;10.02;4.20;;;;;;;;;;5219111;28;20043;-80
2022/05/27 13:59:28;;;;;;;7.50;5.13;;;;;;;;;;5219017;28;20021;-81
2022/05/27 14:01:59;;;;;;;3.38;3.10;;;;;;;;;;5220931;28;20291;-79
2022/05/27 14:04:36;;;;;;;4.07;3.67;;;;;;;;;;5222119;28;20017;-80
2022/05/27 14:07:21;;;;;;;7.82;3.97;;;;;;;;;;5220109;28;20013;-83
2022/05/27 14:09:57;;;;;;;9.85;4.88;;;;;;;;;;5220843;28;20123;-78
2022/05/27 14:12:34;;;;;;;4.63;3.88;;;;;;;;;;5201723;28;20022;-82
2022/05/27 14:15:04;;;;;;;4.55;3.70;;;;;;;;;;5218792;28;20029;-82
2022/05/27 14:17:40;;;;;;;7.30;3.80;;;;;;;;;;5218287;28;20571;-82
2022/05/27 14:20:12;;;;;;;9.25;3.83;;;;;;;;;;5217935;28;20028;-81
2022/05/27 14:22:47;;;;;;;3.45;2.95;;;;;;;;;;5218167;28;20079;-82
2022/05/27 14:25:20;;;;;;;12.82;3.17;;;;;;;;;;5217932;28;20077;-83
2022/05/27 14:27:55;;;;;;;3.58;2.58;;;;;;;;;;5201401;28;20060;-82
2022/05/27 14:30:31;;;;;;;3.25;2.58;;;;;;;;;;5202082;28;20032;-84
2022/05/27 14:33:02;;;;;;;9.95;3.08;;;;;;;;;;5220261;28;20041;-83
2022/05/27 14:35:33;;;;;;;8.93;3.40;;;;;;;;;;5203698;28;20025;-82
2022/05/27 14:38:07;;;;;;;3.38;2.78;;;;;;;;;;5219427;28;20053;-83
2022/05/27 14:40:37;;;;;;;6.35;3.33;;;;;;;;;;5219063;28;20100;-80
2022/05/27 14:43:24;;;;;;;6.70;2.77;;;;;;;;;;5216754;28;20057;-83
2022/05/27 14:45:55;;;;;;;3.63;1.80;;;;;;;;;;5198957;28;20291;-81
2022/05/27 14:48:34;;;;;;;3.60;2.80;;;;;;;;;;5198776;28;20037;-80
2022/05/27 14:51:23;;;;;;;10.57;3.17;;;;;;;;;;5216512;28;20037;-82
2022/05/27 14:53:55;;;;;;;5.90;3.67;;;;;;;;;;5228702;23;20033;-63
2022/05/27 14:56:27;;;;;;;4.68;2.50;;;;;;;;;;5188266;28;20488;-60
2022/05/27 14:59:08;;;;;;;5.90;1.83;;;;;;;;;;5186938;28;20025;-61
2022/05/27 15:01:40;;;;;;;4.88;2.90;;;;;;;;;;5186944;28;20056;-62
2022/05/27 15:04:17;;;;;;;8.20;3.40;;;;;;;;;;5186682;28;20059;-62
2022/05/27 15:06:47;;;;;;;2.97;2.08;;;;;;;;;;5187149;28;20021;-61
2022/05/27 15:09:20;;;;;;;3.10;2.42;;;;;;;;;;5187013;28;20021;-61
2022/05/27 15:11:51;;;;;;;5.30;2.47;;;;;;;;;;5186976;28;20112;-61
2022/05/27 15:14:23;;;;;;;5.68;3.13;;;;;;;;;;5186422;28;20133;-60
2022/05/27 15:16:55;;;;;;;1.80;1.70;;;;;;;;;;5186792;28;20025;-62
2022/05/27 15:19:27;;;;;;;10.55;4.63;;;;;;;;;;5186507;28;20060;-62
2022/05/27 15:22:05;;;;;;;3.95;3.63;;;;;;;;;;5185796;28;20385;-63
2022/05/27 15:24:39;;;;;;;4.90;2.58;;;;;;;;;;5165857;28;20422;-61
2022/05/27 15:33:09;;;;;;;2.40;2.22;;;;;;;;;;5184158;28;20037;-59
2022/05/27 15:35:50;;;;;;;5.53;3.25;;;;;;;;;;5166170;28;20022;-62
2022/05/27 15:38:22;;;;;;;4.82;3.30;;;;;;;;;;5166289;28;20028;-62
2022/05/27 15:40:53;;;;;;;1.95;1.85;;;;;;;;;;5167917;28;20497;-61
2022/05/27 15:43:35;;;;;;;2.60;2.33;;;;;;;;;;5170008;28;20100;-62
2022/05/27 15:46:10;;;;;;;2.72;1.52;;;;;;;;;;5170236;28;20488;-64
2022/05/27 15:48:41;;;;;;;3.10;1.63;;;;;;;;;;5170230;28;20032;-63
2022/05/27 15:51:12;;;;;;;1.90;1.83;;;;;;;;;;5170489;28;20021;-63
2022/05/27 15:53:42;;;;;;;1.60;1.50;;;;;;;;;;5169942;28;20145;-63
2022/05/27 15:56:13;;;;;;;2.67;2.33;;;;;;;;;;5170270;28;20026;-63
2022/05/27 15:58:44;;;;;;;2.75;2.15;;;;;;;;;;5169997;28;20501;-62
2022/05/27 16:01:14;;;;;;;5.25;2.00;;;;;;;;;;5170355;28;20030;-62
2022/05/27 16:03:45;;;;;;;3.42;3.08;;;;;;;;;;5169755;28;20029;-62
2022/05/27 16:06:15;;;;;;;2.63;1.85;;;;;;;;;;5169770;28;20052;-60
2022/05/27 16:08:46;;;;;;;6.00;2.80;;;;;;;;;;5170076;28;20022;-64